sensor_id;sensor_type;location;lat;lon;timestamp;P1;durP1;ratioP1;P2;durP2;ratioP2
25023;SDS011;13033;50.936;5.334;2022-09-03T00:00:34;2.40;;;1.67;;
25023;SDS011;13033;50.936;5.334;2022-09-03T00:05:40;5.72;;;2.13;;
25023;SDS011;13033;50.936;5.334;2022-09-03T00:08:19;3.33;;;1.80;;
25023;SDS011;13033;50.936;5.334;2022-09-03T00:13:38;2.97;;;2.05;;
25023;SDS011;13033;50.936;5.334;2022-09-03T00:16:10;5.15;;;1.90;;
25023;SDS011;13033;50.936;5.334;2022-09-03T00:18:44;4.30;;;1.88;;
25023;SDS011;13033;50.936;5.334;2022-09-03T00:21:46;3.45;;;1.73;;
25023;SDS011;13033;50.936;5.334;2022-09-03T00:24:09;5.00;;;2.08;;
25023;SDS011;13033;50.936;5.334;2022-09-03T00:26:38;9.98;;;2.20;;
25023;SDS011;13033;50.936;5.334;2022-09-03T00:29:12;4.00;;;1.88;;
25023;SDS011;13033;50.936;5.334;2022-09-03T00:31:42;5.97;;;2.10;;
25023;SDS011;13033;50.936;5.334;2022-09-03T00:34:16;2.60;;;1.80;;
25023;SDS011;13033;50.936;5.334;2022-09-03T00:36:48;3.88;;;1.90;;
25023;SDS011;13033;50.936;5.334;2022-09-03T00:39:18;2.50;;;1.63;;
25023;SDS011;13033;50.936;5.334;2022-09-03T00:42:05;4.50;;;2.20;;
25023;SDS011;13033;50.936;5.334;2022-09-03T00:47:22;3.65;;;2.05;;
25023;SDS011;13033;50.936;5.334;2022-09-03T00:58:51;7.15;;;2.25;;
25023;SDS011;13033;50.936;5.334;2022-09-03T01:07:57;4.15;;;2.10;;
25023;SDS011;13033;50.936;5.334;2022-09-03T01:09:58;3.80;;;2.20;;
25023;SDS011;13033;50.936;5.334;2022-09-03T01:15:16;4.80;;;2.50;;
25023;SDS011;13033;50.936;5.334;2022-09-03T01:17:53;3.75;;;2.17;;
25023;SDS011;13033;50.936;5.334;2022-09-03T01:32:01;6.93;;;2.13;;
25023;SDS011;13033;50.936;5.334;2022-09-03T01:40:16;4.20;;;1.90;;
25023;SDS011;13033;50.936;5.334;2022-09-03T01:48:25;7.93;;;2.13;;
25023;SDS011;13033;50.936;5.334;2022-09-03T01:59:28;3.50;;;2.13;;
25023;SDS011;13033;50.936;5.334;2022-09-03T02:02:17;5.25;;;1.77;;
25023;SDS011;13033;50.936;5.334;2022-09-03T02:04:55;4.10;;;1.63;;
25023;SDS011;13033;50.936;5.334;2022-09-03T02:07:24;4.97;;;2.10;;
25023;SDS011;13033;50.936;5.334;2022-09-03T02:09:54;2.78;;;1.52;;
25023;SDS011;13033;50.936;5.334;2022-09-03T02:12:20;4.82;;;1.77;;
25023;SDS011;13033;50.936;5.334;2022-09-03T02:14:46;4.50;;;1.65;;
25023;SDS011;13033;50.936;5.334;2022-09-03T02:17:12;3.47;;;1.70;;
25023;SDS011;13033;50.936;5.334;2022-09-03T02:19:38;4.80;;;1.80;;
25023;SDS011;13033;50.936;5.334;2022-09-03T02:22:04;3.70;;;1.70;;
25023;SDS011;13033;50.936;5.334;2022-09-03T02:24:30;2.95;;;1.95;;
25023;SDS011;13033;50.936;5.334;2022-09-03T02:26:56;4.43;;;1.70;;
25023;SDS011;13033;50.936;5.334;2022-09-03T02:29:22;4.45;;;1.70;;
25023;SDS011;13033;50.936;5.334;2022-09-03T02:31:49;2.10;;;1.60;;
25023;SDS011;13033;50.936;5.334;2022-09-03T02:34:15;3.63;;;1.77;;
25023;SDS011;13033;50.936;5.334;2022-09-03T02:36:42;2.08;;;1.48;;
25023;SDS011;13033;50.936;5.334;2022-09-03T02:39:13;3.00;;;2.00;;
25023;SDS011;13033;50.936;5.334;2022-09-03T02:41:40;2.63;;;2.10;;
25023;SDS011;13033;50.936;5.334;2022-09-03T02:49:22;3.72;;;1.80;;
25023;SDS011;13033;50.936;5.334;2022-09-03T02:51:48;2.35;;;1.70;;
25023;SDS011;13033;50.936;5.334;2022-09-03T02:54:13;4.15;;;1.98;;
25023;SDS011;13033;50.936;5.334;2022-09-03T02:56:39;4.13;;;1.80;;
25023;SDS011;13033;50.936;5.334;2022-09-03T02:59:06;8.68;;;2.00;;
25023;SDS011;13033;50.936;5.334;2022-09-03T03:01:33;4.13;;;1.60;;
25023;SDS011;13033;50.936;5.334;2022-09-03T03:03:58;6.25;;;2.10;;
25023;SDS011;13033;50.936;5.334;2022-09-03T03:06:24;2.72;;;1.58;;
25023;SDS011;13033;50.936;5.334;2022-09-03T03:08:51;3.97;;;1.60;;
25023;SDS011;13033;50.936;5.334;2022-09-03T03:11:19;2.63;;;1.90;;
25023;SDS011;13033;50.936;5.334;2022-09-03T03:13:47;2.97;;;1.58;;
25023;SDS011;13033;50.936;5.334;2022-09-03T03:16:14;9.32;;;1.90;;
25023;SDS011;13033;50.936;5.334;2022-09-03T03:18:40;3.83;;;1.90;;
25023;SDS011;13033;50.936;5.334;2022-09-03T03:21:10;5.20;;;1.90;;
25023;SDS011;13033;50.936;5.334;2022-09-03T03:23:37;2.33;;;1.80;;
25023;SDS011;13033;50.936;5.334;2022-09-03T03:26:04;7.72;;;1.90;;
25023;SDS011;13033;50.936;5.334;2022-09-03T03:28:32;4.10;;;1.77;;
25023;SDS011;13033;50.936;5.334;2022-09-03T03:31:04;3.25;;;1.75;;
25023;SDS011;13033;50.936;5.334;2022-09-03T03:33:34;3.58;;;1.90;;
25023;SDS011;13033;50.936;5.334;2022-09-03T03:36:06;8.73;;;2.60;;
25023;SDS011;13033;50.936;5.334;2022-09-03T03:38:36;6.75;;;1.85;;
25023;SDS011;13033;50.936;5.334;2022-09-03T03:41:06;2.80;;;1.98;;
25023;SDS011;13033;50.936;5.334;2022-09-03T03:43:33;3.47;;;1.70;;
25023;SDS011;13033;50.936;5.334;2022-09-03T03:45:59;3.65;;;1.70;;
25023;SDS011;13033;50.936;5.334;2022-09-03T03:48:25;3.30;;;1.75;;
25023;SDS011;13033;50.936;5.334;2022-09-03T03:50:51;5.03;;;1.80;;
25023;SDS011;13033;50.936;5.334;2022-09-03T03:53:17;4.32;;;2.03;;
25023;SDS011;13033;50.936;5.334;2022-09-03T03:55:52;5.30;;;2.08;;
25023;SDS011;13033;50.936;5.334;2022-09-03T03:58:20;3.65;;;1.90;;
25023;SDS011;13033;50.936;5.334;2022-09-03T04:00:46;6.30;;;2.05;;
25023;SDS011;13033;50.936;5.334;2022-09-03T04:03:14;6.80;;;1.73;;
25023;SDS011;13033;50.936;5.334;2022-09-03T04:05:39;5.65;;;1.90;;
25023;SDS011;13033;50.936;5.334;2022-09-03T04:08:05;4.68;;;2.08;;
25023;SDS011;13033;50.936;5.334;2022-09-03T04:10:31;5.22;;;2.05;;
25023;SDS011;13033;50.936;5.334;2022-09-03T04:12:56;3.20;;;1.80;;
25023;SDS011;13033;50.936;5.334;2022-09-03T04:15:22;6.15;;;2.15;;
25023;SDS011;13033;50.936;5.334;2022-09-03T04:17:48;3.38;;;1.90;;
25023;SDS011;13033;50.936;5.334;2022-09-03T04:20:13;3.08;;;1.90;;
25023;SDS011;13033;50.936;5.334;2022-09-03T04:22:39;2.38;;;1.70;;
25023;SDS011;13033;50.936;5.334;2022-09-03T04:25:05;6.07;;;2.03;;
25023;SDS011;13033;50.936;5.334;2022-09-03T04:27:30;5.82;;;2.15;;
25023;SDS011;13033;50.936;5.334;2022-09-03T04:29:56;4.90;;;1.88;;
25023;SDS011;13033;50.936;5.334;2022-09-03T04:32:22;9.30;;;2.17;;
25023;SDS011;13033;50.936;5.334;2022-09-03T04:35:06;4.03;;;1.85;;
25023;SDS011;13033;50.936;5.334;2022-09-03T04:37:32;5.75;;;2.10;;
25023;SDS011;13033;50.936;5.334;2022-09-03T04:39:57;3.33;;;1.92;;
25023;SDS011;13033;50.936;5.334;2022-09-03T04:42:23;6.22;;;2.15;;
25023;SDS011;13033;50.936;5.334;2022-09-03T04:44:49;3.97;;;1.83;;
25023;SDS011;13033;50.936;5.334;2022-09-03T04:47:14;2.55;;;1.70;;
25023;SDS011;13033;50.936;5.334;2022-09-03T04:49:40;2.45;;;1.52;;
25023;SDS011;13033;50.936;5.334;2022-09-03T04:52:06;4.38;;;2.20;;
25023;SDS011;13033;50.936;5.334;2022-09-03T04:54:31;5.13;;;1.83;;
25023;SDS011;13033;50.936;5.334;2022-09-03T04:56:57;4.88;;;2.25;;
25023;SDS011;13033;50.936;5.334;2022-09-03T04:59:23;3.88;;;1.75;;
25023;SDS011;13033;50.936;5.334;2022-09-03T05:01:48;5.28;;;2.10;;
25023;SDS011;13033;50.936;5.334;2022-09-03T05:04:16;4.22;;;1.98;;
25023;SDS011;13033;50.936;5.334;2022-09-03T05:06:42;4.38;;;1.90;;
25023;SDS011;13033;50.936;5.334;2022-09-03T05:09:09;5.38;;;2.08;;
25023;SDS011;13033;50.936;5.334;2022-09-03T05:11:35;5.22;;;2.08;;
25023;SDS011;13033;50.936;5.334;2022-09-03T05:14:00;7.25;;;2.00;;
25023;SDS011;13033;50.936;5.334;2022-09-03T05:16:26;3.92;;;2.00;;
25023;SDS011;13033;50.936;5.334;2022-09-03T05:18:54;5.78;;;1.85;;
25023;SDS011;13033;50.936;5.334;2022-09-03T05:21:23;9.25;;;1.90;;
25023;SDS011;13033;50.936;5.334;2022-09-03T05:23:49;6.03;;;2.58;;
25023;SDS011;13033;50.936;5.334;2022-09-03T05:26:17;5.53;;;2.42;;
25023;SDS011;13033;50.936;5.334;2022-09-03T05:28:44;5.55;;;2.50;;
25023;SDS011;13033;50.936;5.334;2022-09-03T05:31:14;4.43;;;2.00;;
25023;SDS011;13033;50.936;5.334;2022-09-03T05:33:52;5.38;;;2.22;;
25023;SDS011;13033;50.936;5.334;2022-09-03T05:36:20;5.55;;;2.10;;
25023;SDS011;13033;50.936;5.334;2022-09-03T05:38:47;7.75;;;2.50;;
25023;SDS011;13033;50.936;5.334;2022-09-03T05:41:14;5.50;;;2.20;;
25023;SDS011;13033;50.936;5.334;2022-09-03T05:43:40;6.60;;;2.33;;
25023;SDS011;13033;50.936;5.334;2022-09-03T05:46:07;5.50;;;2.33;;
25023;SDS011;13033;50.936;5.334;2022-09-03T05:48:35;8.18;;;2.65;;
25023;SDS011;13033;50.936;5.334;2022-09-03T05:51:06;4.68;;;2.40;;
25023;SDS011;13033;50.936;5.334;2022-09-03T05:53:34;5.20;;;2.72;;
25023;SDS011;13033;50.936;5.334;2022-09-03T05:56:02;5.25;;;2.28;;
25023;SDS011;13033;50.936;5.334;2022-09-03T05:58:56;6.35;;;2.25;;
25023;SDS011;13033;50.936;5.334;2022-09-03T06:01:25;6.80;;;1.95;;
25023;SDS011;13033;50.936;5.334;2022-09-03T06:03:57;7.95;;;2.20;;
25023;SDS011;13033;50.936;5.334;2022-09-03T06:06:24;5.90;;;2.47;;
25023;SDS011;13033;50.936;5.334;2022-09-03T06:08:52;5.95;;;2.53;;
25023;SDS011;13033;50.936;5.334;2022-09-03T06:11:19;4.20;;;2.15;;
25023;SDS011;13033;50.936;5.334;2022-09-03T06:13:48;8.90;;;2.65;;
25023;SDS011;13033;50.936;5.334;2022-09-03T06:16:14;7.55;;;2.20;;
25023;SDS011;13033;50.936;5.334;2022-09-03T06:18:40;10.38;;;2.78;;
25023;SDS011;13033;50.936;5.334;2022-09-03T06:21:06;4.25;;;2.20;;
25023;SDS011;13033;50.936;5.334;2022-09-03T06:23:33;6.57;;;2.58;;
25023;SDS011;13033;50.936;5.334;2022-09-03T06:28:26;7.90;;;3.00;;
25023;SDS011;13033;50.936;5.334;2022-09-03T06:30:52;14.43;;;3.45;;
25023;SDS011;13033;50.936;5.334;2022-09-03T06:33:18;10.10;;;3.03;;
25023;SDS011;13033;50.936;5.334;2022-09-03T06:35:44;9.50;;;2.95;;
25023;SDS011;13033;50.936;5.334;2022-09-03T06:38:10;10.90;;;3.80;;
25023;SDS011;13033;50.936;5.334;2022-09-03T06:40:36;10.90;;;3.55;;
25023;SDS011;13033;50.936;5.334;2022-09-03T06:43:02;9.80;;;3.28;;
25023;SDS011;13033;50.936;5.334;2022-09-03T06:45:29;7.43;;;3.33;;
25023;SDS011;13033;50.936;5.334;2022-09-03T06:47:55;11.68;;;3.15;;
25023;SDS011;13033;50.936;5.334;2022-09-03T06:50:21;8.27;;;3.33;;
25023;SDS011;13033;50.936;5.334;2022-09-03T06:52:51;7.43;;;3.08;;
25023;SDS011;13033;50.936;5.334;2022-09-03T06:55:19;7.45;;;2.80;;
25023;SDS011;13033;50.936;5.334;2022-09-03T06:57:46;5.90;;;2.75;;
25023;SDS011;13033;50.936;5.334;2022-09-03T07:00:12;5.63;;;2.60;;
25023;SDS011;13033;50.936;5.334;2022-09-03T07:02:47;11.75;;;3.10;;
25023;SDS011;13033;50.936;5.334;2022-09-03T07:05:13;12.65;;;3.55;;
25023;SDS011;13033;50.936;5.334;2022-09-03T07:07:38;7.50;;;2.75;;
25023;SDS011;13033;50.936;5.334;2022-09-03T07:10:04;7.55;;;2.92;;
25023;SDS011;13033;50.936;5.334;2022-09-03T07:12:30;9.15;;;3.00;;
25023;SDS011;13033;50.936;5.334;2022-09-03T07:14:58;4.45;;;2.50;;
25023;SDS011;13033;50.936;5.334;2022-09-03T07:17:24;9.07;;;2.30;;
25023;SDS011;13033;50.936;5.334;2022-09-03T07:19:50;8.25;;;2.28;;
25023;SDS011;13033;50.936;5.334;2022-09-03T07:22:15;9.48;;;2.30;;
25023;SDS011;13033;50.936;5.334;2022-09-03T07:24:41;8.80;;;3.05;;
25023;SDS011;13033;50.936;5.334;2022-09-03T07:27:07;11.27;;;2.30;;
25023;SDS011;13033;50.936;5.334;2022-09-03T07:29:32;8.60;;;2.20;;
25023;SDS011;13033;50.936;5.334;2022-09-03T07:31:58;14.77;;;1.98;;
25023;SDS011;13033;50.936;5.334;2022-09-03T07:34:24;4.85;;;2.10;;
25023;SDS011;13033;50.936;5.334;2022-09-03T07:36:51;8.90;;;2.00;;
25023;SDS011;13033;50.936;5.334;2022-09-03T07:39:17;25.15;;;3.05;;
25023;SDS011;13033;50.936;5.334;2022-09-03T07:41:44;10.95;;;2.00;;
25023;SDS011;13033;50.936;5.334;2022-09-03T07:44:10;4.22;;;2.35;;
25023;SDS011;13033;50.936;5.334;2022-09-03T07:46:39;10.50;;;2.13;;
25023;SDS011;13033;50.936;5.334;2022-09-03T07:49:05;7.35;;;2.10;;
25023;SDS011;13033;50.936;5.334;2022-09-03T07:51:32;6.57;;;1.95;;
25023;SDS011;13033;50.936;5.334;2022-09-03T07:54:00;4.15;;;1.88;;
25023;SDS011;13033;50.936;5.334;2022-09-03T07:56:26;7.55;;;2.10;;
25023;SDS011;13033;50.936;5.334;2022-09-03T07:58:55;10.75;;;2.10;;
25023;SDS011;13033;50.936;5.334;2022-09-03T08:01:22;7.82;;;2.47;;
25023;SDS011;13033;50.936;5.334;2022-09-03T08:03:49;2.88;;;1.83;;
25023;SDS011;13033;50.936;5.334;2022-09-03T08:06:18;7.25;;;2.40;;
25023;SDS011;13033;50.936;5.334;2022-09-03T08:08:46;8.02;;;2.08;;
25023;SDS011;13033;50.936;5.334;2022-09-03T08:11:15;9.23;;;2.08;;
25023;SDS011;13033;50.936;5.334;2022-09-03T08:13:52;6.30;;;1.85;;
25023;SDS011;13033;50.936;5.334;2022-09-03T08:16:40;6.82;;;2.10;;
25023;SDS011;13033;50.936;5.334;2022-09-03T08:19:08;5.32;;;2.10;;
25023;SDS011;13033;50.936;5.334;2022-09-03T08:21:35;7.82;;;2.53;;
25023;SDS011;13033;50.936;5.334;2022-09-03T08:24:01;4.05;;;1.90;;
25023;SDS011;13033;50.936;5.334;2022-09-03T08:26:27;4.32;;;2.08;;
25023;SDS011;13033;50.936;5.334;2022-09-03T08:28:55;5.70;;;1.90;;
25023;SDS011;13033;50.936;5.334;2022-09-03T08:31:22;4.82;;;1.95;;
25023;SDS011;13033;50.936;5.334;2022-09-03T08:33:50;7.57;;;2.38;;
25023;SDS011;13033;50.936;5.334;2022-09-03T08:36:18;3.22;;;2.03;;
25023;SDS011;13033;50.936;5.334;2022-09-03T08:38:54;5.32;;;2.25;;
25023;SDS011;13033;50.936;5.334;2022-09-03T08:41:27;12.27;;;2.28;;
25023;SDS011;13033;50.936;5.334;2022-09-03T08:46:50;7.35;;;2.75;;
25023;SDS011;13033;50.936;5.334;2022-09-03T08:52:39;7.47;;;2.55;;
25023;SDS011;13033;50.936;5.334;2022-09-03T08:58:02;7.90;;;2.47;;
25023;SDS011;13033;50.936;5.334;2022-09-03T09:11:46;3.40;;;2.50;;
25023;SDS011;13033;50.936;5.334;2022-09-03T09:22:34;3.70;;;2.30;;
25023;SDS011;13033;50.936;5.334;2022-09-03T09:25:02;6.32;;;2.10;;
25023;SDS011;13033;50.936;5.334;2022-09-03T09:27:33;3.22;;;2.53;;
25023;SDS011;13033;50.936;5.334;2022-09-03T09:30:00;3.47;;;2.22;;
25023;SDS011;13033;50.936;5.334;2022-09-03T09:32:29;4.38;;;2.30;;
25023;SDS011;13033;50.936;5.334;2022-09-03T09:34:56;2.45;;;2.25;;
25023;SDS011;13033;50.936;5.334;2022-09-03T09:37:21;4.13;;;2.40;;
25023;SDS011;13033;50.936;5.334;2022-09-03T09:39:55;3.85;;;2.33;;
25023;SDS011;13033;50.936;5.334;2022-09-03T09:42:23;3.58;;;2.40;;
25023;SDS011;13033;50.936;5.334;2022-09-03T09:44:49;3.47;;;2.42;;
25023;SDS011;13033;50.936;5.334;2022-09-03T09:47:20;4.07;;;2.30;;
25023;SDS011;13033;50.936;5.334;2022-09-03T09:49:53;2.97;;;2.40;;
25023;SDS011;13033;50.936;5.334;2022-09-03T09:52:20;2.95;;;2.40;;
25023;SDS011;13033;50.936;5.334;2022-09-03T09:54:50;5.10;;;2.60;;
25023;SDS011;13033;50.936;5.334;2022-09-03T09:57:21;2.72;;;2.35;;
25023;SDS011;13033;50.936;5.334;2022-09-03T09:59:49;6.77;;;2.60;;
25023;SDS011;13033;50.936;5.334;2022-09-03T10:02:26;3.75;;;2.75;;
25023;SDS011;13033;50.936;5.334;2022-09-03T10:04:57;2.53;;;2.33;;
25023;SDS011;13033;50.936;5.334;2022-09-03T10:07:35;4.15;;;2.53;;
25023;SDS011;13033;50.936;5.334;2022-09-03T10:12:50;2.65;;;2.42;;
25023;SDS011;13033;50.936;5.334;2022-09-03T10:26:26;5.45;;;2.47;;
25023;SDS011;13033;50.936;5.334;2022-09-03T10:28:57;4.82;;;2.50;;
25023;SDS011;13033;50.936;5.334;2022-09-03T10:44:57;5.88;;;2.92;;
25023;SDS011;13033;50.936;5.334;2022-09-03T10:50:12;3.80;;;2.90;;
25023;SDS011;13033;50.936;5.334;2022-09-03T11:04:32;5.05;;;2.53;;
25023;SDS011;13033;50.936;5.334;2022-09-03T11:07:02;5.68;;;2.95;;
25023;SDS011;13033;50.936;5.334;2022-09-03T11:09:51;3.97;;;2.63;;
25023;SDS011;13033;50.936;5.334;2022-09-03T11:12:26;3.92;;;2.60;;
25023;SDS011;13033;50.936;5.334;2022-09-03T11:15:03;4.53;;;2.35;;
25023;SDS011;13033;50.936;5.334;2022-09-03T11:17:36;3.30;;;2.70;;
25023;SDS011;13033;50.936;5.334;2022-09-03T11:20:21;4.70;;;2.50;;
25023;SDS011;13033;50.936;5.334;2022-09-03T11:22:49;3.65;;;2.65;;
25023;SDS011;13033;50.936;5.334;2022-09-03T11:25:19;6.32;;;2.80;;
25023;SDS011;13033;50.936;5.334;2022-09-03T11:28:12;4.47;;;2.67;;
25023;SDS011;13033;50.936;5.334;2022-09-03T11:36:40;3.88;;;2.67;;
25023;SDS011;13033;50.936;5.334;2022-09-03T11:39:14;3.60;;;2.72;;
25023;SDS011;13033;50.936;5.334;2022-09-03T11:41:59;3.23;;;2.63;;
25023;SDS011;13033;50.936;5.334;2022-09-03T11:44:37;5.40;;;3.00;;
25023;SDS011;13033;50.936;5.334;2022-09-03T11:47:13;3.40;;;2.90;;
25023;SDS011;13033;50.936;5.334;2022-09-03T11:50:04;6.63;;;2.95;;
25023;SDS011;13033;50.936;5.334;2022-09-03T11:53:37;3.47;;;2.72;;
25023;SDS011;13033;50.936;5.334;2022-09-03T11:55:54;5.20;;;2.70;;
25023;SDS011;13033;50.936;5.334;2022-09-03T12:00:48;3.55;;;3.08;;
25023;SDS011;13033;50.936;5.334;2022-09-03T12:03:20;7.93;;;3.08;;
25023;SDS011;13033;50.936;5.334;2022-09-03T12:06:03;4.10;;;3.47;;
25023;SDS011;13033;50.936;5.334;2022-09-03T12:08:40;6.72;;;3.20;;
25023;SDS011;13033;50.936;5.334;2022-09-03T12:14:04;3.78;;;3.28;;
25023;SDS011;13033;50.936;5.334;2022-09-03T12:19:06;4.45;;;2.97;;
25023;SDS011;13033;50.936;5.334;2022-09-03T12:21:47;3.92;;;2.83;;
25023;SDS011;13033;50.936;5.334;2022-09-03T12:24:13;4.50;;;3.33;;
25023;SDS011;13033;50.936;5.334;2022-09-03T12:26:40;5.60;;;3.05;;
25023;SDS011;13033;50.936;5.334;2022-09-03T12:29:16;4.47;;;3.35;;
25023;SDS011;13033;50.936;5.334;2022-09-03T12:31:46;4.90;;;3.30;;
25023;SDS011;13033;50.936;5.334;2022-09-03T12:34:15;8.25;;;3.22;;
25023;SDS011;13033;50.936;5.334;2022-09-03T12:36:43;7.97;;;3.05;;
25023;SDS011;13033;50.936;5.334;2022-09-03T12:41:52;3.25;;;2.47;;
25023;SDS011;13033;50.936;5.334;2022-09-03T12:44:37;3.95;;;2.58;;
25023;SDS011;13033;50.936;5.334;2022-09-03T12:49:40;3.65;;;2.70;;
25023;SDS011;13033;50.936;5.334;2022-09-03T12:54:53;2.95;;;2.42;;
25023;SDS011;13033;50.936;5.334;2022-09-03T12:57:29;3.03;;;2.63;;
25023;SDS011;13033;50.936;5.334;2022-09-03T13:00:03;3.60;;;2.25;;
25023;SDS011;13033;50.936;5.334;2022-09-03T13:02:38;3.10;;;2.70;;
25023;SDS011;13033;50.936;5.334;2022-09-03T13:05:13;3.50;;;2.42;;
25023;SDS011;13033;50.936;5.334;2022-09-03T13:07:44;2.67;;;2.47;;
25023;SDS011;13033;50.936;5.334;2022-09-03T13:10:27;7.47;;;3.08;;
25023;SDS011;13033;50.936;5.334;2022-09-03T13:12:59;3.28;;;2.67;;
25023;SDS011;13033;50.936;5.334;2022-09-03T13:15:26;7.30;;;3.17;;
25023;SDS011;13033;50.936;5.334;2022-09-03T13:18:09;3.33;;;2.60;;
25023;SDS011;13033;50.936;5.334;2022-09-03T13:24:02;4.22;;;2.42;;
25023;SDS011;13033;50.936;5.334;2022-09-03T13:26:51;2.33;;;2.10;;
25023;SDS011;13033;50.936;5.334;2022-09-03T13:29:56;2.42;;;2.20;;
25023;SDS011;13033;50.936;5.334;2022-09-03T13:35:32;2.83;;;2.13;;
25023;SDS011;13033;50.936;5.334;2022-09-03T13:38:23;4.40;;;2.38;;
25023;SDS011;13033;50.936;5.334;2022-09-03T13:43:36;3.33;;;2.50;;
25023;SDS011;13033;50.936;5.334;2022-09-03T13:46:09;2.45;;;2.25;;
25023;SDS011;13033;50.936;5.334;2022-09-03T13:48:47;5.10;;;2.10;;
25023;SDS011;13033;50.936;5.334;2022-09-03T13:51:38;3.50;;;2.47;;
25023;SDS011;13033;50.936;5.334;2022-09-03T13:54:22;2.67;;;2.20;;
25023;SDS011;13033;50.936;5.334;2022-09-03T13:59:39;4.03;;;2.50;;
25023;SDS011;13033;50.936;5.334;2022-09-03T14:02:22;3.40;;;2.90;;
25023;SDS011;13033;50.936;5.334;2022-09-03T14:05:15;9.13;;;2.90;;
25023;SDS011;13033;50.936;5.334;2022-09-03T14:08:06;6.53;;;2.85;;
25023;SDS011;13033;50.936;5.334;2022-09-03T14:10:51;6.72;;;2.90;;
25023;SDS011;13033;50.936;5.334;2022-09-03T14:19:18;3.72;;;2.80;;
25023;SDS011;13033;50.936;5.334;2022-09-03T14:21:57;6.75;;;3.42;;
25023;SDS011;13033;50.936;5.334;2022-09-03T14:24:39;4.72;;;3.13;;
25023;SDS011;13033;50.936;5.334;2022-09-03T14:27:08;6.13;;;3.05;;
25023;SDS011;13033;50.936;5.334;2022-09-03T14:29:35;5.55;;;3.13;;
25023;SDS011;13033;50.936;5.334;2022-09-03T14:37:38;5.80;;;3.15;;
25023;SDS011;13033;50.936;5.334;2022-09-03T14:40:24;6.38;;;3.05;;
25023;SDS011;13033;50.936;5.334;2022-09-03T14:43:14;5.82;;;3.20;;
25023;SDS011;13033;50.936;5.334;2022-09-03T15:02:42;5.28;;;3.47;;
25023;SDS011;13033;50.936;5.334;2022-09-03T15:10:54;6.40;;;3.10;;
25023;SDS011;13033;50.936;5.334;2022-09-03T15:13:23;4.38;;;3.00;;
25023;SDS011;13033;50.936;5.334;2022-09-03T15:27:13;4.80;;;3.10;;
25023;SDS011;13033;50.936;5.334;2022-09-03T15:30:05;5.32;;;3.08;;
25023;SDS011;13033;50.936;5.334;2022-09-03T15:41:24;6.53;;;3.42;;
25023;SDS011;13033;50.936;5.334;2022-09-03T15:43:57;5.05;;;3.40;;
25023;SDS011;13033;50.936;5.334;2022-09-03T15:49:26;8.18;;;3.78;;
25023;SDS011;13033;50.936;5.334;2022-09-03T15:54:52;6.95;;;3.38;;
25023;SDS011;13033;50.936;5.334;2022-09-03T15:57:32;5.25;;;3.05;;
25023;SDS011;13033;50.936;5.334;2022-09-03T16:00:11;5.63;;;3.63;;
25023;SDS011;13033;50.936;5.334;2022-09-03T16:02:43;4.22;;;3.20;;
25023;SDS011;13033;50.936;5.334;2022-09-03T16:05:25;6.80;;;3.50;;
25023;SDS011;13033;50.936;5.334;2022-09-03T16:10:49;5.95;;;3.22;;
25023;SDS011;13033;50.936;5.334;2022-09-03T16:13:29;3.58;;;3.25;;
25023;SDS011;13033;50.936;5.334;2022-09-03T16:16:24;7.32;;;4.10;;
25023;SDS011;13033;50.936;5.334;2022-09-03T16:24:24;5.90;;;3.10;;
25023;SDS011;13033;50.936;5.334;2022-09-03T16:35:24;4.03;;;2.70;;
25023;SDS011;13033;50.936;5.334;2022-09-03T16:40:49;4.93;;;2.65;;
25023;SDS011;13033;50.936;5.334;2022-09-03T16:48:22;3.90;;;2.65;;
25023;SDS011;13033;50.936;5.334;2022-09-03T16:51:07;4.22;;;2.63;;
25023;SDS011;13033;50.936;5.334;2022-09-03T16:56:40;4.05;;;2.50;;
25023;SDS011;13033;50.936;5.334;2022-09-03T16:59:36;2.85;;;2.63;;
25023;SDS011;13033;50.936;5.334;2022-09-03T17:02:32;5.57;;;2.80;;
25023;SDS011;13033;50.936;5.334;2022-09-03T17:10:38;4.00;;;2.70;;
25023;SDS011;13033;50.936;5.334;2022-09-03T17:19:15;4.43;;;2.60;;
25023;SDS011;13033;50.936;5.334;2022-09-03T17:29:29;7.03;;;3.77;;
25023;SDS011;13033;50.936;5.334;2022-09-03T17:32:19;2.63;;;2.33;;
25023;SDS011;13033;50.936;5.334;2022-09-03T17:37:43;4.43;;;2.80;;
25023;SDS011;13033;50.936;5.334;2022-09-03T17:43:30;6.45;;;2.75;;
25023;SDS011;13033;50.936;5.334;2022-09-03T17:46:16;3.90;;;2.92;;
25023;SDS011;13033;50.936;5.334;2022-09-03T17:48:51;4.68;;;2.80;;
25023;SDS011;13033;50.936;5.334;2022-09-03T17:54:11;3.00;;;2.38;;
25023;SDS011;13033;50.936;5.334;2022-09-03T17:59:31;4.45;;;2.50;;
25023;SDS011;13033;50.936;5.334;2022-09-03T18:01:59;4.53;;;2.38;;
25023;SDS011;13033;50.936;5.334;2022-09-03T18:04:30;2.67;;;2.47;;
25023;SDS011;13033;50.936;5.334;2022-09-03T18:07:22;3.88;;;2.60;;
25023;SDS011;13033;50.936;5.334;2022-09-03T18:10:31;4.53;;;2.85;;
25023;SDS011;13033;50.936;5.334;2022-09-03T18:18:49;3.80;;;2.58;;
25023;SDS011;13033;50.936;5.334;2022-09-03T18:21:23;3.17;;;2.40;;
25023;SDS011;13033;50.936;5.334;2022-09-03T18:27:11;7.47;;;3.00;;
25023;SDS011;13033;50.936;5.334;2022-09-03T18:30:03;6.55;;;3.13;;
25023;SDS011;13033;50.936;5.334;2022-09-03T18:32:52;8.63;;;3.57;;
25023;SDS011;13033;50.936;5.334;2022-09-03T18:35:36;7.35;;;3.20;;
25023;SDS011;13033;50.936;5.334;2022-09-03T18:38:24;8.65;;;3.00;;
25023;SDS011;13033;50.936;5.334;2022-09-03T18:41:16;7.15;;;3.58;;
25023;SDS011;13033;50.936;5.334;2022-09-03T18:50:12;5.35;;;3.10;;
25023;SDS011;13033;50.936;5.334;2022-09-03T18:53:02;11.13;;;3.80;;
25023;SDS011;13033;50.936;5.334;2022-09-03T18:56:14;4.63;;;3.17;;
25023;SDS011;13033;50.936;5.334;2022-09-03T18:59:21;4.28;;;2.88;;
25023;SDS011;13033;50.936;5.334;2022-09-03T19:02:31;9.60;;;3.92;;
25023;SDS011;13033;50.936;5.334;2022-09-03T19:05:23;5.50;;;3.10;;
25023;SDS011;13033;50.936;5.334;2022-09-03T19:08:21;10.13;;;4.18;;
25023;SDS011;13033;50.936;5.334;2022-09-03T19:11:31;5.55;;;3.75;;
25023;SDS011;13033;50.936;5.334;2022-09-03T19:14:52;6.47;;;2.85;;
25023;SDS011;13033;50.936;5.334;2022-09-03T19:23:54;8.57;;;3.10;;
25023;SDS011;13033;50.936;5.334;2022-09-03T19:30:08;4.50;;;2.85;;
25023;SDS011;13033;50.936;5.334;2022-09-03T19:33:01;5.20;;;2.70;;
25023;SDS011;13033;50.936;5.334;2022-09-03T19:39:15;4.45;;;3.63;;
25023;SDS011;13033;50.936;5.334;2022-09-03T19:45:06;6.70;;;3.72;;
25023;SDS011;13033;50.936;5.334;2022-09-03T19:48:12;6.40;;;3.80;;
25023;SDS011;13033;50.936;5.334;2022-09-03T19:51:10;6.57;;;3.53;;
25023;SDS011;13033;50.936;5.334;2022-09-03T19:54:00;5.72;;;3.78;;
25023;SDS011;13033;50.936;5.334;2022-09-03T19:56:46;5.07;;;3.50;;
25023;SDS011;13033;50.936;5.334;2022-09-03T19:59:37;7.75;;;4.03;;
25023;SDS011;13033;50.936;5.334;2022-09-03T20:02:23;5.22;;;3.40;;
25023;SDS011;13033;50.936;5.334;2022-09-03T20:05:18;5.97;;;3.58;;
25023;SDS011;13033;50.936;5.334;2022-09-03T20:08:03;6.57;;;3.83;;
25023;SDS011;13033;50.936;5.334;2022-09-03T20:10:49;5.00;;;3.95;;
25023;SDS011;13033;50.936;5.334;2022-09-03T20:13:19;6.18;;;3.53;;
25023;SDS011;13033;50.936;5.334;2022-09-03T20:20:57;8.52;;;3.72;;
25023;SDS011;13033;50.936;5.334;2022-09-03T20:23:39;5.18;;;3.30;;
25023;SDS011;13033;50.936;5.334;2022-09-03T20:37:13;6.70;;;3.03;;
25023;SDS011;13033;50.936;5.334;2022-09-03T20:40:00;2.72;;;2.47;;
25023;SDS011;13033;50.936;5.334;2022-09-03T20:45:05;3.27;;;2.47;;
25023;SDS011;13033;50.936;5.334;2022-09-03T20:53:30;3.72;;;2.58;;
25023;SDS011;13033;50.936;5.334;2022-09-03T20:59:10;3.80;;;2.42;;
25023;SDS011;13033;50.936;5.334;2022-09-03T21:15:44;4.43;;;3.00;;
25023;SDS011;13033;50.936;5.334;2022-09-03T21:27:12;4.03;;;3.33;;
25023;SDS011;13033;50.936;5.334;2022-09-03T21:30:26;4.03;;;2.92;;
25023;SDS011;13033;50.936;5.334;2022-09-03T21:35:32;5.47;;;3.00;;
25023;SDS011;13033;50.936;5.334;2022-09-03T21:38:06;5.60;;;3.55;;